sensor_id;sensor_type;location;lat;lon;timestamp;P1;durP1;ratioP1;P2;durP2;ratioP2
67747;SDS011;54543;50.712;6.070;2022-12-07T00:01:08;14.23;;;7.60;;
67747;SDS011;54543;50.712;6.070;2022-12-07T00:03:38;12.80;;;7.28;;
67747;SDS011;54543;50.712;6.070;2022-12-07T00:06:06;12.35;;;7.10;;
67747;SDS011;54543;50.712;6.070;2022-12-07T00:08:33;12.60;;;7.22;;
67747;SDS011;54543;50.712;6.070;2022-12-07T00:11:03;14.88;;;7.32;;
67747;SDS011;54543;50.712;6.070;2022-12-07T00:13:30;13.68;;;8.05;;
67747;SDS011;54543;50.712;6.070;2022-12-07T00:15:59;16.48;;;8.57;;
67747;SDS011;54543;50.712;6.070;2022-12-07T00:18:29;14.20;;;7.70;;
67747;SDS011;54543;50.712;6.070;2022-12-07T00:21:02;12.45;;;7.75;;
67747;SDS011;54543;50.712;6.070;2022-12-07T00:23:49;13.30;;;7.80;;
67747;SDS011;54543;50.712;6.070;2022-12-07T00:26:18;14.23;;;7.93;;
67747;SDS011;54543;50.712;6.070;2022-12-07T00:28:48;11.27;;;7.03;;
67747;SDS011;54543;50.712;6.070;2022-12-07T00:31:16;16.17;;;8.73;;
67747;SDS011;54543;50.712;6.070;2022-12-07T00:33:43;13.65;;;7.57;;
67747;SDS011;54543;50.712;6.070;2022-12-07T00:36:10;14.68;;;7.47;;
67747;SDS011;54543;50.712;6.070;2022-12-07T00:38:38;21.60;;;11.70;;
67747;SDS011;54543;50.712;6.070;2022-12-07T00:41:05;17.92;;;9.00;;
67747;SDS011;54543;50.712;6.070;2022-12-07T00:43:41;19.48;;;11.10;;
67747;SDS011;54543;50.712;6.070;2022-12-07T00:46:08;23.40;;;13.10;;
67747;SDS011;54543;50.712;6.070;2022-12-07T00:48:34;23.10;;;12.88;;
67747;SDS011;54543;50.712;6.070;2022-12-07T00:51:00;25.90;;;14.05;;
67747;SDS011;54543;50.712;6.070;2022-12-07T00:53:26;26.67;;;13.75;;
67747;SDS011;54543;50.712;6.070;2022-12-07T00:55:51;25.00;;;13.65;;
67747;SDS011;54543;50.712;6.070;2022-12-07T00:58:18;26.00;;;14.82;;
67747;SDS011;54543;50.712;6.070;2022-12-07T01:00:44;21.73;;;12.75;;
67747;SDS011;54543;50.712;6.070;2022-12-07T01:03:11;17.70;;;10.73;;
67747;SDS011;54543;50.712;6.070;2022-12-07T01:05:38;22.25;;;11.98;;
67747;SDS011;54543;50.712;6.070;2022-12-07T01:08:03;21.35;;;12.23;;
67747;SDS011;54543;50.712;6.070;2022-12-07T01:10:30;28.77;;;13.35;;
67747;SDS011;54543;50.712;6.070;2022-12-07T01:12:56;18.90;;;10.57;;
67747;SDS011;54543;50.712;6.070;2022-12-07T01:15:23;24.48;;;12.02;;
67747;SDS011;54543;50.712;6.070;2022-12-07T01:17:48;18.83;;;10.10;;
67747;SDS011;54543;50.712;6.070;2022-12-07T01:20:14;24.52;;;12.70;;
67747;SDS011;54543;50.712;6.070;2022-12-07T01:22:41;20.02;;;11.98;;
67747;SDS011;54543;50.712;6.070;2022-12-07T01:25:08;20.27;;;11.27;;
67747;SDS011;54543;50.712;6.070;2022-12-07T01:27:35;20.42;;;12.00;;
67747;SDS011;54543;50.712;6.070;2022-12-07T01:30:03;18.25;;;10.73;;
67747;SDS011;54543;50.712;6.070;2022-12-07T01:32:31;19.58;;;12.10;;
67747;SDS011;54543;50.712;6.070;2022-12-07T01:34:57;19.05;;;10.98;;
67747;SDS011;54543;50.712;6.070;2022-12-07T01:37:23;30.15;;;15.13;;
67747;SDS011;54543;50.712;6.070;2022-12-07T01:39:49;20.38;;;11.38;;
67747;SDS011;54543;50.712;6.070;2022-12-07T01:42:15;20.75;;;11.23;;
67747;SDS011;54543;50.712;6.070;2022-12-07T01:47:41;25.08;;;12.98;;
67747;SDS011;54543;50.712;6.070;2022-12-07T01:50:08;23.55;;;12.35;;
67747;SDS011;54543;50.712;6.070;2022-12-07T01:52:35;25.08;;;12.90;;
67747;SDS011;54543;50.712;6.070;2022-12-07T01:55:06;21.38;;;11.20;;
67747;SDS011;54543;50.712;6.070;2022-12-07T01:57:35;18.65;;;9.90;;
67747;SDS011;54543;50.712;6.070;2022-12-07T02:00:05;22.13;;;10.30;;
67747;SDS011;54543;50.712;6.070;2022-12-07T02:02:33;23.63;;;10.43;;
67747;SDS011;54543;50.712;6.070;2022-12-07T02:05:04;23.85;;;11.85;;
67747;SDS011;54543;50.712;6.070;2022-12-07T02:07:30;29.08;;;13.55;;
67747;SDS011;54543;50.712;6.070;2022-12-07T02:09:57;23.98;;;12.00;;
67747;SDS011;54543;50.712;6.070;2022-12-07T02:12:38;23.60;;;11.75;;
67747;SDS011;54543;50.712;6.070;2022-12-07T02:15:05;20.52;;;9.98;;
67747;SDS011;54543;50.712;6.070;2022-12-07T02:23:00;21.67;;;11.70;;
67747;SDS011;54543;50.712;6.070;2022-12-07T02:25:54;21.40;;;10.90;;
67747;SDS011;54543;50.712;6.070;2022-12-07T02:28:35;15.65;;;9.02;;
67747;SDS011;54543;50.712;6.070;2022-12-07T02:31:09;30.27;;;15.20;;
67747;SDS011;54543;50.712;6.070;2022-12-07T02:33:44;27.27;;;13.18;;
67747;SDS011;54543;50.712;6.070;2022-12-07T02:36:38;23.55;;;12.25;;
67747;SDS011;54543;50.712;6.070;2022-12-07T02:39:07;35.63;;;17.45;;
67747;SDS011;54543;50.712;6.070;2022-12-07T02:41:38;25.42;;;13.77;;
67747;SDS011;54543;50.712;6.070;2022-12-07T02:44:10;37.22;;;16.90;;
67747;SDS011;54543;50.712;6.070;2022-12-07T02:46:40;31.20;;;16.42;;
67747;SDS011;54543;50.712;6.070;2022-12-07T02:49:09;28.20;;;14.13;;
67747;SDS011;54543;50.712;6.070;2022-12-07T02:51:38;27.00;;;13.70;;
67747;SDS011;54543;50.712;6.070;2022-12-07T02:54:16;31.02;;;14.50;;
67747;SDS011;54543;50.712;6.070;2022-12-07T03:04:37;31.25;;;14.95;;
67747;SDS011;54543;50.712;6.070;2022-12-07T03:07:33;36.45;;;15.70;;
67747;SDS011;54543;50.712;6.070;2022-12-07T03:13:10;36.08;;;17.25;;
67747;SDS011;54543;50.712;6.070;2022-12-07T03:18:50;34.15;;;16.73;;
67747;SDS011;54543;50.712;6.070;2022-12-07T03:21:24;34.50;;;16.13;;
67747;SDS011;54543;50.712;6.070;2022-12-07T03:23:58;38.30;;;18.65;;
67747;SDS011;54543;50.712;6.070;2022-12-07T03:26:30;44.13;;;20.55;;
67747;SDS011;54543;50.712;6.070;2022-12-07T03:29:01;45.40;;;20.33;;
67747;SDS011;54543;50.712;6.070;2022-12-07T03:31:34;28.33;;;15.38;;
67747;SDS011;54543;50.712;6.070;2022-12-07T03:34:07;29.23;;;14.43;;
67747;SDS011;54543;50.712;6.070;2022-12-07T03:37:12;19.08;;;11.30;;
67747;SDS011;54543;50.712;6.070;2022-12-07T03:39:48;21.05;;;10.95;;
67747;SDS011;54543;50.712;6.070;2022-12-07T03:42:24;20.17;;;10.15;;
67747;SDS011;54543;50.712;6.070;2022-12-07T03:44:50;20.05;;;10.18;;
67747;SDS011;54543;50.712;6.070;2022-12-07T03:47:22;28.60;;;14.13;;
67747;SDS011;54543;50.712;6.070;2022-12-07T03:49:58;25.55;;;13.50;;
67747;SDS011;54543;50.712;6.070;2022-12-07T03:55:07;18.42;;;10.43;;
67747;SDS011;54543;50.712;6.070;2022-12-07T03:57:36;29.35;;;12.02;;
67747;SDS011;54543;50.712;6.070;2022-12-07T04:00:04;46.38;;;21.00;;
67747;SDS011;54543;50.712;6.070;2022-12-07T04:02:32;24.50;;;11.88;;
67747;SDS011;54543;50.712;6.070;2022-12-07T04:04:58;27.67;;;14.00;;
67747;SDS011;54543;50.712;6.070;2022-12-07T04:07:24;25.95;;;12.50;;
67747;SDS011;54543;50.712;6.070;2022-12-07T04:09:49;24.42;;;12.35;;
67747;SDS011;54543;50.712;6.070;2022-12-07T04:12:15;21.02;;;10.52;;
67747;SDS011;54543;50.712;6.070;2022-12-07T04:14:40;22.05;;;10.90;;
67747;SDS011;54543;50.712;6.070;2022-12-07T04:17:06;23.95;;;11.52;;
67747;SDS011;54543;50.712;6.070;2022-12-07T04:19:32;25.33;;;11.02;;
67747;SDS011;54543;50.712;6.070;2022-12-07T04:21:59;27.25;;;12.95;;
67747;SDS011;54543;50.712;6.070;2022-12-07T04:24:26;24.73;;;11.27;;
67747;SDS011;54543;50.712;6.070;2022-12-07T04:26:52;25.92;;;10.80;;
67747;SDS011;54543;50.712;6.070;2022-12-07T04:29:18;29.23;;;14.32;;
67747;SDS011;54543;50.712;6.070;2022-12-07T04:31:44;27.63;;;12.80;;
67747;SDS011;54543;50.712;6.070;2022-12-07T04:34:10;33.40;;;14.40;;
67747;SDS011;54543;50.712;6.070;2022-12-07T04:36:37;30.52;;;13.68;;
67747;SDS011;54543;50.712;6.070;2022-12-07T04:39:04;48.38;;;18.15;;
67747;SDS011;54543;50.712;6.070;2022-12-07T04:41:30;32.25;;;14.27;;
67747;SDS011;54543;50.712;6.070;2022-12-07T04:44:03;30.63;;;13.52;;
67747;SDS011;54543;50.712;6.070;2022-12-07T04:46:29;59.72;;;20.40;;
67747;SDS011;54543;50.712;6.070;2022-12-07T04:48:56;37.53;;;16.85;;
67747;SDS011;54543;50.712;6.070;2022-12-07T04:51:24;21.25;;;10.27;;
67747;SDS011;54543;50.712;6.070;2022-12-07T04:53:51;26.85;;;12.85;;
67747;SDS011;54543;50.712;6.070;2022-12-07T04:56:17;54.72;;;16.88;;
67747;SDS011;54543;50.712;6.070;2022-12-07T04:58:44;33.20;;;16.55;;
67747;SDS011;54543;50.712;6.070;2022-12-07T05:01:10;34.78;;;15.63;;
67747;SDS011;54543;50.712;6.070;2022-12-07T05:03:37;31.60;;;14.00;;
67747;SDS011;54543;50.712;6.070;2022-12-07T05:06:03;34.70;;;14.45;;
67747;SDS011;54543;50.712;6.070;2022-12-07T05:08:29;34.03;;;15.50;;
67747;SDS011;54543;50.712;6.070;2022-12-07T05:10:55;30.10;;;13.23;;
67747;SDS011;54543;50.712;6.070;2022-12-07T05:13:20;23.85;;;10.93;;
67747;SDS011;54543;50.712;6.070;2022-12-07T05:15:46;30.13;;;14.45;;
67747;SDS011;54543;50.712;6.070;2022-12-07T05:18:13;30.40;;;13.20;;
67747;SDS011;54543;50.712;6.070;2022-12-07T05:20:39;23.65;;;10.80;;
67747;SDS011;54543;50.712;6.070;2022-12-07T05:23:05;24.00;;;10.68;;
67747;SDS011;54543;50.712;6.070;2022-12-07T05:25:30;36.92;;;15.35;;
67747;SDS011;54543;50.712;6.070;2022-12-07T05:27:56;24.48;;;11.68;;
67747;SDS011;54543;50.712;6.070;2022-12-07T05:30:22;28.50;;;14.25;;
67747;SDS011;54543;50.712;6.070;2022-12-07T05:32:48;28.38;;;12.25;;
67747;SDS011;54543;50.712;6.070;2022-12-07T05:35:13;26.48;;;11.70;;
67747;SDS011;54543;50.712;6.070;2022-12-07T05:37:39;41.60;;;17.88;;
67747;SDS011;54543;50.712;6.070;2022-12-07T05:40:05;24.50;;;11.45;;
67747;SDS011;54543;50.712;6.070;2022-12-07T05:42:30;27.50;;;10.57;;
67747;SDS011;54543;50.712;6.070;2022-12-07T05:44:56;21.42;;;10.50;;
67747;SDS011;54543;50.712;6.070;2022-12-07T05:47:22;21.58;;;10.05;;
67747;SDS011;54543;50.712;6.070;2022-12-07T05:49:47;22.63;;;10.88;;
67747;SDS011;54543;50.712;6.070;2022-12-07T05:52:12;16.85;;;8.30;;
67747;SDS011;54543;50.712;6.070;2022-12-07T05:54:38;21.23;;;9.90;;
67747;SDS011;54543;50.712;6.070;2022-12-07T05:57:03;23.30;;;10.57;;
67747;SDS011;54543;50.712;6.070;2022-12-07T05:59:29;18.95;;;9.27;;
67747;SDS011;54543;50.712;6.070;2022-12-07T06:01:56;17.92;;;7.95;;
67747;SDS011;54543;50.712;6.070;2022-12-07T06:04:23;22.58;;;10.80;;
67747;SDS011;54543;50.712;6.070;2022-12-07T06:06:51;24.95;;;10.70;;
67747;SDS011;54543;50.712;6.070;2022-12-07T06:09:17;25.05;;;11.75;;
67747;SDS011;54543;50.712;6.070;2022-12-07T06:11:43;20.23;;;10.15;;
67747;SDS011;54543;50.712;6.070;2022-12-07T06:14:28;19.42;;;8.77;;
67747;SDS011;54543;50.712;6.070;2022-12-07T06:16:53;20.42;;;10.35;;
67747;SDS011;54543;50.712;6.070;2022-12-07T06:19:19;16.88;;;8.68;;
67747;SDS011;54543;50.712;6.070;2022-12-07T06:21:44;16.58;;;8.93;;
67747;SDS011;54543;50.712;6.070;2022-12-07T06:24:13;28.90;;;13.45;;
67747;SDS011;54543;50.712;6.070;2022-12-07T06:26:40;19.27;;;10.45;;
67747;SDS011;54543;50.712;6.070;2022-12-07T06:29:06;23.85;;;11.32;;
67747;SDS011;54543;50.712;6.070;2022-12-07T06:31:32;20.92;;;10.75;;
67747;SDS011;54543;50.712;6.070;2022-12-07T06:33:58;21.25;;;9.98;;
67747;SDS011;54543;50.712;6.070;2022-12-07T06:36:25;24.80;;;10.57;;
67747;SDS011;54543;50.712;6.070;2022-12-07T06:38:51;18.13;;;9.05;;
67747;SDS011;54543;50.712;6.070;2022-12-07T06:41:17;26.48;;;12.30;;
67747;SDS011;54543;50.712;6.070;2022-12-07T06:43:42;24.25;;;11.98;;
67747;SDS011;54543;50.712;6.070;2022-12-07T06:46:08;17.85;;;9.00;;
67747;SDS011;54543;50.712;6.070;2022-12-07T06:48:33;29.83;;;13.07;;
67747;SDS011;54543;50.712;6.070;2022-12-07T06:50:59;30.67;;;14.30;;
67747;SDS011;54543;50.712;6.070;2022-12-07T06:53:24;29.08;;;14.77;;
67747;SDS011;54543;50.712;6.070;2022-12-07T06:55:50;26.80;;;11.60;;
67747;SDS011;54543;50.712;6.070;2022-12-07T06:58:15;32.13;;;15.02;;
67747;SDS011;54543;50.712;6.070;2022-12-07T07:00:41;32.20;;;15.05;;
67747;SDS011;54543;50.712;6.070;2022-12-07T07:03:07;26.80;;;13.25;;
67747;SDS011;54543;50.712;6.070;2022-12-07T07:05:33;22.92;;;10.60;;
67747;SDS011;54543;50.712;6.070;2022-12-07T07:07:58;23.27;;;10.10;;
67747;SDS011;54543;50.712;6.070;2022-12-07T07:10:24;17.95;;;8.90;;
67747;SDS011;54543;50.712;6.070;2022-12-07T07:12:49;31.42;;;13.07;;
67747;SDS011;54543;50.712;6.070;2022-12-07T07:15:15;23.83;;;10.48;;
67747;SDS011;54543;50.712;6.070;2022-12-07T07:17:41;21.20;;;10.95;;
67747;SDS011;54543;50.712;6.070;2022-12-07T07:20:06;19.02;;;9.48;;
67747;SDS011;54543;50.712;6.070;2022-12-07T07:22:32;22.00;;;10.15;;
67747;SDS011;54543;50.712;6.070;2022-12-07T07:24:58;23.50;;;10.45;;
67747;SDS011;54543;50.712;6.070;2022-12-07T07:27:23;28.60;;;11.52;;
67747;SDS011;54543;50.712;6.070;2022-12-07T07:29:48;25.88;;;11.23;;
67747;SDS011;54543;50.712;6.070;2022-12-07T07:32:14;28.48;;;11.82;;
67747;SDS011;54543;50.712;6.070;2022-12-07T07:34:40;29.17;;;11.95;;
67747;SDS011;54543;50.712;6.070;2022-12-07T07:37:05;22.02;;;9.98;;
67747;SDS011;54543;50.712;6.070;2022-12-07T07:39:31;30.15;;;12.95;;
67747;SDS011;54543;50.712;6.070;2022-12-07T07:41:56;32.30;;;11.95;;
67747;SDS011;54543;50.712;6.070;2022-12-07T07:44:22;17.13;;;8.02;;
67747;SDS011;54543;50.712;6.070;2022-12-07T07:46:47;27.05;;;10.85;;
67747;SDS011;54543;50.712;6.070;2022-12-07T07:49:12;22.30;;;10.10;;
67747;SDS011;54543;50.712;6.070;2022-12-07T07:51:38;26.80;;;10.77;;
67747;SDS011;54543;50.712;6.070;2022-12-07T07:54:03;24.70;;;9.85;;
67747;SDS011;54543;50.712;6.070;2022-12-07T07:56:29;14.93;;;6.97;;
67747;SDS011;54543;50.712;6.070;2022-12-07T07:58:54;18.83;;;8.82;;
67747;SDS011;54543;50.712;6.070;2022-12-07T08:01:20;10.85;;;5.28;;
67747;SDS011;54543;50.712;6.070;2022-12-07T08:03:46;21.05;;;8.73;;
67747;SDS011;54543;50.712;6.070;2022-12-07T08:06:12;24.30;;;11.40;;
67747;SDS011;54543;50.712;6.070;2022-12-07T08:08:37;19.73;;;8.57;;
67747;SDS011;54543;50.712;6.070;2022-12-07T08:11:06;17.52;;;8.48;;
67747;SDS011;54543;50.712;6.070;2022-12-07T08:13:33;25.95;;;10.93;;
67747;SDS011;54543;50.712;6.070;2022-12-07T08:15:59;16.92;;;8.57;;
67747;SDS011;54543;50.712;6.070;2022-12-07T08:18:35;18.55;;;9.00;;
67747;SDS011;54543;50.712;6.070;2022-12-07T08:21:01;15.82;;;7.78;;
67747;SDS011;54543;50.712;6.070;2022-12-07T08:23:27;19.05;;;7.30;;
67747;SDS011;54543;50.712;6.070;2022-12-07T08:25:53;24.27;;;10.57;;
67747;SDS011;54543;50.712;6.070;2022-12-07T08:28:18;18.80;;;9.68;;
67747;SDS011;54543;50.712;6.070;2022-12-07T08:30:44;25.98;;;9.88;;
67747;SDS011;54543;50.712;6.070;2022-12-07T08:33:09;20.58;;;9.02;;
67747;SDS011;54543;50.712;6.070;2022-12-07T08:35:36;17.95;;;9.07;;
67747;SDS011;54543;50.712;6.070;2022-12-07T08:38:01;18.98;;;8.32;;
67747;SDS011;54543;50.712;6.070;2022-12-07T08:40:27;17.23;;;9.15;;
67747;SDS011;54543;50.712;6.070;2022-12-07T08:42:53;20.90;;;8.70;;
67747;SDS011;54543;50.712;6.070;2022-12-07T08:45:20;16.05;;;7.45;;
67747;SDS011;54543;50.712;6.070;2022-12-07T08:50:36;13.07;;;7.05;;
67747;SDS011;54543;50.712;6.070;2022-12-07T08:53:02;12.55;;;6.63;;
67747;SDS011;54543;50.712;6.070;2022-12-07T08:55:30;13.38;;;6.80;;
67747;SDS011;54543;50.712;6.070;2022-12-07T08:57:58;16.23;;;7.32;;
67747;SDS011;54543;50.712;6.070;2022-12-07T09:00:24;15.75;;;8.13;;
67747;SDS011;54543;50.712;6.070;2022-12-07T09:02:51;16.33;;;8.27;;
67747;SDS011;54543;50.712;6.070;2022-12-07T09:05:16;14.23;;;7.95;;
67747;SDS011;54543;50.712;6.070;2022-12-07T09:07:43;16.08;;;8.20;;
67747;SDS011;54543;50.712;6.070;2022-12-07T09:10:11;14.90;;;8.18;;
67747;SDS011;54543;50.712;6.070;2022-12-07T09:12:36;18.73;;;7.93;;
67747;SDS011;54543;50.712;6.070;2022-12-07T09:15:02;28.90;;;11.63;;
67747;SDS011;54543;50.712;6.070;2022-12-07T09:17:31;20.85;;;9.60;;
67747;SDS011;54543;50.712;6.070;2022-12-07T09:19:57;18.05;;;8.50;;
67747;SDS011;54543;50.712;6.070;2022-12-07T09:22:23;24.85;;;10.90;;
67747;SDS011;54543;50.712;6.070;2022-12-07T09:24:48;25.10;;;10.77;;
67747;SDS011;54543;50.712;6.070;2022-12-07T09:27:14;31.35;;;13.30;;
67747;SDS011;54543;50.712;6.070;2022-12-07T09:29:41;28.73;;;12.65;;
67747;SDS011;54543;50.712;6.070;2022-12-07T09:32:07;26.83;;;11.32;;
67747;SDS011;54543;50.712;6.070;2022-12-07T09:34:32;30.90;;;12.75;;
67747;SDS011;54543;50.712;6.070;2022-12-07T09:36:58;30.17;;;12.35;;
67747;SDS011;54543;50.712;6.070;2022-12-07T09:39:25;24.50;;;11.30;;
67747;SDS011;54543;50.712;6.070;2022-12-07T09:41:50;28.58;;;10.23;;
67747;SDS011;54543;50.712;6.070;2022-12-07T09:44:21;21.80;;;10.25;;
67747;SDS011;54543;50.712;6.070;2022-12-07T09:46:49;18.48;;;8.18;;
67747;SDS011;54543;50.712;6.070;2022-12-07T09:49:22;29.00;;;11.73;;
67747;SDS011;54543;50.712;6.070;2022-12-07T09:51:59;27.83;;;11.55;;
67747;SDS011;54543;50.712;6.070;2022-12-07T09:54:35;23.33;;;11.50;;
67747;SDS011;54543;50.712;6.070;2022-12-07T09:57:04;19.52;;;8.95;;
67747;SDS011;54543;50.712;6.070;2022-12-07T09:59:30;19.40;;;9.50;;
67747;SDS011;54543;50.712;6.070;2022-12-07T10:01:56;18.25;;;9.18;;
67747;SDS011;54543;50.712;6.070;2022-12-07T10:04:49;21.05;;;9.27;;
67747;SDS011;54543;50.712;6.070;2022-12-07T10:07:15;18.45;;;8.88;;
67747;SDS011;54543;50.712;6.070;2022-12-07T10:09:40;20.35;;;10.65;;
67747;SDS011;54543;50.712;6.070;2022-12-07T10:12:07;20.52;;;9.88;;
67747;SDS011;54543;50.712;6.070;2022-12-07T10:14:35;21.98;;;10.88;;
67747;SDS011;54543;50.712;6.070;2022-12-07T10:17:02;21.80;;;11.93;;
67747;SDS011;54543;50.712;6.070;2022-12-07T10:20:08;19.02;;;9.48;;
67747;SDS011;54543;50.712;6.070;2022-12-07T10:22:37;23.50;;;11.27;;
67747;SDS011;54543;50.712;6.070;2022-12-07T10:25:15;20.67;;;10.65;;
67747;SDS011;54543;50.712;6.070;2022-12-07T10:27:44;21.40;;;11.80;;
67747;SDS011;54543;50.712;6.070;2022-12-07T10:30:27;20.15;;;10.70;;
67747;SDS011;54543;50.712;6.070;2022-12-07T10:32:52;20.80;;;11.95;;
67747;SDS011;54543;50.712;6.070;2022-12-07T10:37:48;17.92;;;9.25;;
67747;SDS011;54543;50.712;6.070;2022-12-07T10:40:25;20.95;;;12.10;;
67747;SDS011;54543;50.712;6.070;2022-12-07T10:46:04;26.65;;;12.43;;
67747;SDS011;54543;50.712;6.070;2022-12-07T10:53:59;17.23;;;9.60;;
67747;SDS011;54543;50.712;6.070;2022-12-07T10:56:40;25.88;;;12.27;;
67747;SDS011;54543;50.712;6.070;2022-12-07T11:10:49;23.42;;;11.55;;
67747;SDS011;54543;50.712;6.070;2022-12-07T11:22:09;20.20;;;11.65;;
67747;SDS011;54543;50.712;6.070;2022-12-07T11:24:46;25.45;;;12.82;;
67747;SDS011;54543;50.712;6.070;2022-12-07T11:27:35;17.42;;;9.68;;
67747;SDS011;54543;50.712;6.070;2022-12-07T11:32:57;20.58;;;11.70;;
67747;SDS011;54543;50.712;6.070;2022-12-07T11:38:12;22.30;;;12.82;;
67747;SDS011;54543;50.712;6.070;2022-12-07T11:40:41;23.08;;;13.63;;
67747;SDS011;54543;50.712;6.070;2022-12-07T11:43:18;21.35;;;11.35;;
67747;SDS011;54543;50.712;6.070;2022-12-07T11:45:52;30.20;;;14.38;;
67747;SDS011;54543;50.712;6.070;2022-12-07T11:48:35;20.23;;;11.50;;
67747;SDS011;54543;50.712;6.070;2022-12-07T11:51:03;34.08;;;14.23;;
67747;SDS011;54543;50.712;6.070;2022-12-07T11:53:38;21.25;;;12.43;;
67747;SDS011;54543;50.712;6.070;2022-12-07T11:56:15;20.77;;;10.70;;
67747;SDS011;54543;50.712;6.070;2022-12-07T12:06:31;25.17;;;12.45;;
67747;SDS011;54543;50.712;6.070;2022-12-07T12:09:06;30.42;;;13.77;;
67747;SDS011;54543;50.712;6.070;2022-12-07T12:14:23;24.63;;;12.73;;
67747;SDS011;54543;50.712;6.070;2022-12-07T12:22:34;21.98;;;11.75;;
67747;SDS011;54543;50.712;6.070;2022-12-07T12:25:07;22.30;;;10.68;;
67747;SDS011;54543;50.712;6.070;2022-12-07T12:27:46;21.05;;;10.07;;
67747;SDS011;54543;50.712;6.070;2022-12-07T12:33:13;14.38;;;7.78;;
67747;SDS011;54543;50.712;6.070;2022-12-07T12:35:48;19.77;;;9.90;;
67747;SDS011;54543;50.712;6.070;2022-12-07T12:44:38;12.98;;;7.88;;
67747;SDS011;54543;50.712;6.070;2022-12-07T12:46:55;12.40;;;6.53;;
67747;SDS011;54543;50.712;6.070;2022-12-07T12:54:28;12.88;;;7.18;;
67747;SDS011;54543;50.712;6.070;2022-12-07T12:59:36;13.63;;;7.45;;
67747;SDS011;54543;50.712;6.070;2022-12-07T13:12:57;12.27;;;6.38;;
67747;SDS011;54543;50.712;6.070;2022-12-07T13:26:15;13.48;;;7.90;;
67747;SDS011;54543;50.712;6.070;2022-12-07T13:28:43;15.00;;;8.48;;
67747;SDS011;54543;50.712;6.070;2022-12-07T13:31:33;16.17;;;8.40;;
67747;SDS011;54543;50.712;6.070;2022-12-07T13:34:05;12.48;;;7.20;;
67747;SDS011;54543;50.712;6.070;2022-12-07T13:36:52;16.27;;;7.82;;
67747;SDS011;54543;50.712;6.070;2022-12-07T13:39:19;12.02;;;6.93;;
67747;SDS011;54543;50.712;6.070;2022-12-07T13:41:54;11.40;;;6.72;;
67747;SDS011;54543;50.712;6.070;2022-12-07T13:44:22;15.45;;;7.13;;
67747;SDS011;54543;50.712;6.070;2022-12-07T13:46:53;15.68;;;7.88;;
67747;SDS011;54543;50.712;6.070;2022-12-07T13:49:21;14.73;;;6.60;;
67747;SDS011;54543;50.712;6.070;2022-12-07T13:51:50;13.75;;;7.72;;
67747;SDS011;54543;50.712;6.070;2022-12-07T13:54:16;13.98;;;8.27;;
67747;SDS011;54543;50.712;6.070;2022-12-07T13:56:43;11.00;;;6.78;;
67747;SDS011;54543;50.712;6.070;2022-12-07T13:59:30;13.07;;;6.97;;
67747;SDS011;54543;50.712;6.070;2022-12-07T14:01:58;12.30;;;6.82;;
67747;SDS011;54543;50.712;6.070;2022-12-07T14:04:34;16.08;;;9.02;;
67747;SDS011;54543;50.712;6.070;2022-12-07T14:07:15;15.52;;;7.65;;
67747;SDS011;54543;50.712;6.070;2022-12-07T14:09:56;12.50;;;6.55;;
67747;SDS011;54543;50.712;6.070;2022-12-07T14:12:27;9.98;;;6.25;;
67747;SDS011;54543;50.712;6.070;2022-12-07T14:14:54;14.38;;;7.75;;
67747;SDS011;54543;50.712;6.070;2022-12-07T14:17:24;12.13;;;6.75;;
67747;SDS011;54543;50.712;6.070;2022-12-07T14:19:53;12.90;;;7.55;;
67747;SDS011;54543;50.712;6.070;2022-12-07T14:22:33;11.68;;;7.28;;
67747;SDS011;54543;50.712;6.070;2022-12-07T14:25:01;12.73;;;7.18;;
67747;SDS011;54543;50.712;6.070;2022-12-07T14:27:36;10.85;;;6.53;;
67747;SDS011;54543;50.712;6.070;2022-12-07T14:30:02;13.88;;;6.20;;
67747;SDS011;54543;50.712;6.070;2022-12-07T14:32:29;11.52;;;6.10;;
67747;SDS011;54543;50.712;6.070;2022-12-07T14:35:07;10.32;;;5.90;;
67747;SDS011;54543;50.712;6.070;2022-12-07T14:37:36;9.90;;;5.82;;
67747;SDS011;54543;50.712;6.070;2022-12-07T14:40:03;11.05;;;5.68;;
67747;SDS011;54543;50.712;6.070;2022-12-07T14:42:29;14.65;;;7.15;;
67747;SDS011;54543;50.712;6.070;2022-12-07T14:44:56;11.55;;;5.82;;
67747;SDS011;54543;50.712;6.070;2022-12-07T14:47:23;9.77;;;5.55;;
67747;SDS011;54543;50.712;6.070;2022-12-07T14:49:50;11.15;;;6.32;;
67747;SDS011;54543;50.712;6.070;2022-12-07T14:52:22;15.25;;;8.10;;
67747;SDS011;54543;50.712;6.070;2022-12-07T14:54:53;14.40;;;7.35;;
67747;SDS011;54543;50.712;6.070;2022-12-07T14:57:19;15.85;;;8.10;;
67747;SDS011;54543;50.712;6.070;2022-12-07T14:59:44;11.88;;;6.85;;
67747;SDS011;54543;50.712;6.070;2022-12-07T15:02:11;14.90;;;8.48;;
67747;SDS011;54543;50.712;6.070;2022-12-07T15:04:38;10.98;;;6.75;;
67747;SDS011;54543;50.712;6.070;2022-12-07T15:07:05;7.53;;;4.95;;
67747;SDS011;54543;50.712;6.070;2022-12-07T15:09:35;9.43;;;6.13;;
67747;SDS011;54543;50.712;6.070;2022-12-07T15:12:01;12.45;;;6.10;;
67747;SDS011;54543;50.712;6.070;2022-12-07T15:14:27;10.48;;;5.85;;
67747;SDS011;54543;50.712;6.070;2022-12-07T15:16:52;11.35;;;5.95;;
67747;SDS011;54543;50.712;6.070;2022-12-07T15:19:22;9.60;;;5.07;;
67747;SDS011;54543;50.712;6.070;2022-12-07T15:21:50;10.52;;;5.07;;
67747;SDS011;54543;50.712;6.070;2022-12-07T15:24:17;9.77;;;4.70;;
67747;SDS011;54543;50.712;6.070;2022-12-07T15:26:42;11.23;;;7.45;;
67747;SDS011;54543;50.712;6.070;2022-12-07T15:29:08;11.57;;;6.45;;
67747;SDS011;54543;50.712;6.070;2022-12-07T15:31:35;11.50;;;7.30;;
67747;SDS011;54543;50.712;6.070;2022-12-07T15:34:00;10.75;;;5.93;;
67747;SDS011;54543;50.712;6.070;2022-12-07T15:36:28;8.07;;;5.07;;
67747;SDS011;54543;50.712;6.070;2022-12-07T15:38:55;9.95;;;4.60;;
67747;SDS011;54543;50.712;6.070;2022-12-07T15:41:21;8.85;;;4.50;;
67747;SDS011;54543;50.712;6.070;2022-12-07T15:43:47;7.22;;;4.18;;
67747;SDS011;54543;50.712;6.070;2022-12-07T15:46:31;7.03;;;4.00;;
67747;SDS011;54543;50.712;6.070;2022-12-07T15:48:59;7.32;;;4.40;;
67747;SDS011;54543;50.712;6.070;2022-12-07T15:51:25;5.85;;;3.58;;
67747;SDS011;54543;50.712;6.070;2022-12-07T15:53:50;5.22;;;3.53;;
67747;SDS011;54543;50.712;6.070;2022-12-07T15:56:16;4.97;;;3.22;;
67747;SDS011;54543;50.712;6.070;2022-12-07T15:58:42;7.78;;;3.58;;
67747;SDS011;54543;50.712;6.070;2022-12-07T16:01:14;6.88;;;4.00;;
67747;SDS011;54543;50.712;6.070;2022-12-07T16:03:41;6.43;;;3.65;;
67747;SDS011;54543;50.712;6.070;2022-12-07T16:06:07;11.30;;;4.10;;
67747;SDS011;54543;50.712;6.070;2022-12-07T16:08:32;5.20;;;3.00;;
67747;SDS011;54543;50.712;6.070;2022-12-07T16:10:58;6.53;;;3.72;;
67747;SDS011;54543;50.712;6.070;2022-12-07T16:13:23;6.47;;;3.97;;
67747;SDS011;54543;50.712;6.070;2022-12-07T16:15:49;9.38;;;4.60;;
67747;SDS011;54543;50.712;6.070;2022-12-07T16:18:14;7.13;;;3.60;;
67747;SDS011;54543;50.712;6.070;2022-12-07T16:20:40;7.85;;;3.83;;
67747;SDS011;54543;50.712;6.070;2022-12-07T16:23:06;10.35;;;4.72;;
67747;SDS011;54543;50.712;6.070;2022-12-07T16:25:32;6.38;;;4.15;;
67747;SDS011;54543;50.712;6.070;2022-12-07T16:27:58;7.82;;;3.88;;
67747;SDS011;54543;50.712;6.070;2022-12-07T16:30:24;8.07;;;4.55;;
67747;SDS011;54543;50.712;6.070;2022-12-07T16:32:50;7.60;;;4.28;;
67747;SDS011;54543;50.712;6.070;2022-12-07T16:35:16;7.40;;;4.20;;
67747;SDS011;54543;50.712;6.070;2022-12-07T16:37:42;6.50;;;3.95;;